Village of Four Seasons, Missouri
Current Conditions -  °F | °C
As of 10:55 PM on Saturday 22 Nov 2014 (Local Time) from KAIZ Reporting Station
Scattered Clouds Scattered Clouds  
Wind Chill: 54°   Ceiling: Unl
Heat Index: 54°   Visibility: 10mi
Dew Point: 46°   Wind: 8mph
Humidity: 77%   Direction: 160°SSE
Pressure: 29.8"   Gusts: NA
Location:  38.2106°N, 92.6582°W
Report Text: KAIZ 230455Z AUTO 16007KT 10SM FEW016 SCT090 12/08 A2980 RMK AO1
Loading
Personal Weather Stations






























Interactive Weather Map New forecast layout! Learn more

10-Day Weather Forecast

Advertisements
Track Severe Weather on mobile